Time;durP1;ratioP1;P1;durP2;ratioP2;P2;SDS_P1;SDS_P2;PMS_P1;PMS_P2;Temp;Humidity;BMP_temperature;BMP_pressure;BME280_temperature;BME280_humidity;BME280_pressure;Samples;Min_cycle;Max_cycle;Signal;HPM_P1;HPM_P2
2023/07/27 00:05:01;;;;;;;;;;;12.20;99.90;;;;;;20916390;28;20294;-74
2023/07/27 00:15:02;;;;;;;;;;;12.10;99.90;;;;;;20933611;22;19924;-78
2023/07/27 00:25:03;;;;;;;;;;;12.00;99.90;;;;;;20896155;28;20019;-78
2023/07/27 00:35:05;;;;;;;;;;;11.90;99.90;;;;;;20828637;28;19963;-78
2023/07/27 00:45:06;;;;;;;;;;;11.70;99.90;;;;;;20813024;28;19955;-78
2023/07/27 00:55:07;;;;;;;;;;;11.80;99.90;;;;;;20760973;28;19952;-78
2023/07/27 01:05:07;;;;;;;;;;;11.70;99.90;;;;;;20811853;28;19918;-77
2023/07/27 01:15:13;;;;;;;;;;;11.80;99.90;;;;;;20744750;28;19917;-78
2023/07/27 01:25:25;;;;;;;;;;;11.90;99.90;;;;;;20760429;28;19914;-79
2023/07/27 01:35:29;;;;;;;;;;;11.80;99.90;;;;;;20841157;28;19956;-78
2023/07/27 01:45:30;;;;;;;;;;;11.80;99.90;;;;;;20823848;28;19913;-78
2023/07/27 01:55:31;;;;;;;;;;;11.60;99.90;;;;;;20823505;28;20441;-78
2023/07/27 02:05:32;;;;;;;;;;;11.70;99.90;;;;;;20835996;28;19913;-78
2023/07/27 02:15:35;;;;;;;;;;;11.80;99.90;;;;;;20839483;28;20004;-78
2023/07/27 02:25:36;;;;;;;;;;;11.60;99.90;;;;;;20855644;28;19913;-78
2023/07/27 02:35:36;;;;;;;;;;;11.60;99.90;;;;;;20839336;28;20363;-78
2023/07/27 02:45:37;;;;;;;;;;;11.50;99.90;;;;;;20834880;28;19913;-78
2023/07/27 02:55:38;;;;;;;;;;;11.50;99.90;;;;;;20827371;28;19925;-79
2023/07/27 03:05:38;;;;;;;;;;;11.50;99.90;;;;;;20819238;28;20322;-78
2023/07/27 03:15:40;;;;;;;;;;;11.50;99.90;;;;;;20834314;28;19971;-79
2023/07/27 03:25:43;;;;;;;;;;;11.60;99.90;;;;;;20831923;28;19941;-78
2023/07/27 03:35:43;;;;;;;;;;;11.60;99.90;;;;;;20751674;28;20553;-78
2023/07/27 03:45:44;;;;;;;;;;;11.60;99.90;;;;;;20751043;28;19914;-78
2023/07/27 03:55:45;;;;;;;;;;;11.60;99.90;;;;;;20755101;28;19917;-78
2023/07/27 04:05:46;;;;;;;;;;;11.60;99.90;;;;;;20763684;28;19913;-78
2023/07/27 04:15:46;;;;;;;;;;;11.60;99.90;;;;;;20767545;28;19925;-78
2023/07/27 04:25:47;;;;;;;;;;;11.60;99.90;;;;;;20761182;28;19959;-77
2023/07/27 04:35:47;;;;;;;;;;;11.70;99.90;;;;;;20816128;28;19924;-79
2023/07/27 04:45:48;;;;;;;;;;;11.70;99.90;;;;;;20829671;28;19996;-79
2023/07/27 04:55:49;;;;;;;;;;;11.80;99.90;;;;;;20828894;28;19971;-78
2023/07/27 05:05:51;;;;;;;;;;;11.80;99.90;;;;;;20827743;28;19960;-77
2023/07/27 05:15:52;;;;;;;;;;;12.00;99.90;;;;;;20810003;28;19999;-77
2023/07/27 05:25:52;;;;;;;;;;;12.10;99.90;;;;;;20827136;28;19960;-78
2023/07/27 05:35:53;;;;;;;;;;;12.20;99.90;;;;;;20817269;28;20016;-78
2023/07/27 05:45:53;;;;;;;;;;;12.30;99.90;;;;;;20809006;28;19991;-77
2023/07/27 05:55:55;;;;;;;;;;;12.30;99.90;;;;;;20776377;28;19989;-78
2023/07/27 06:05:55;;;;;;;;;;;12.40;99.90;;;;;;20825171;28;19921;-77
2023/07/27 06:15:56;;;;;;;;;;;12.50;99.90;;;;;;20845843;22;19987;-75
2023/07/27 06:25:57;;;;;;;;;;;12.90;99.90;;;;;;20856589;28;19913;-76
2023/07/27 06:35:57;;;;;;;;;;;13.10;99.90;;;;;;20906140;28;19927;-75
2023/07/27 06:45:58;;;;;;;;;;;13.30;99.90;;;;;;20908424;28;19917;-75
2023/07/27 06:55:59;;;;;;;;;;;13.30;99.90;;;;;;20920591;28;19917;-76
2023/07/27 07:06:02;;;;;;;;;;;13.60;99.90;;;;;;20920084;28;19979;-76
2023/07/27 07:16:04;;;;;;;;;;;13.80;99.90;;;;;;20919028;28;20042;-75
2023/07/27 07:26:04;;;;;;;;;;;14.20;99.90;;;;;;20918530;28;19920;-75
2023/07/27 07:36:05;;;;;;;;;;;14.50;99.90;;;;;;20917678;28;19920;-76
2023/07/27 07:46:13;;;;;;;;;;;15.00;99.90;;;;;;20916965;28;20325;-76
2023/07/27 07:56:17;;;;;;;;;;;15.70;99.90;;;;;;20916586;28;19916;-78
2023/07/27 08:06:17;;;;;;;;;;;15.90;99.90;;;;;;20916860;28;20007;-78
2023/07/27 08:16:18;;;;;;;;;;;16.30;99.90;;;;;;20917108;28;20013;-77
2023/07/27 08:26:19;;;;;;;;;;;16.70;99.90;;;;;;20912720;28;20282;-77
2023/07/27 08:36:20;;;;;;;;;;;16.90;99.90;;;;;;20913422;28;20373;-76
2023/07/27 08:46:21;;;;;;;;;;;16.80;99.90;;;;;;20913518;28;20317;-76
2023/07/27 08:56:23;;;;;;;;;;;17.30;99.90;;;;;;20913606;28;20390;-77
2023/07/27 09:06:40;;;;;;;;;;;18.20;99.90;;;;;;20912131;28;19913;-76
2023/07/27 09:16:41;;;;;;;;;;;19.30;99.90;;;;;;20868727;28;19923;-77
2023/07/27 09:26:46;;;;;;;;;;;19.60;99.90;;;;;;20894650;28;19913;-77
2023/07/27 09:36:47;;;;;;;;;;;19.40;99.90;;;;;;20929921;28;19916;-78
2023/07/27 09:46:48;;;;;;;;;;;18.90;99.90;;;;;;20929327;28;19966;-78
2023/07/27 09:56:49;;;;;;;;;;;19.20;99.90;;;;;;20929418;28;19924;-79
2023/07/27 10:06:50;;;;;;;;;;;19.10;99.90;;;;;;20928076;28;19913;-78
2023/07/27 10:17:02;;;;;;;;;;;19.60;99.90;;;;;;20927241;28;20437;-79
2023/07/27 10:27:05;;;;;;;;;;;19.70;99.90;;;;;;20926452;28;20011;-78
2023/07/27 10:37:08;;;;;;;;;;;21.90;99.90;;;;;;20939548;28;19927;-76
2023/07/27 10:47:09;;;;;;;;;;;21.90;99.90;;;;;;20876234;28;20008;-78
2023/07/27 10:57:11;;;;;;;;;;;21.70;99.90;;;;;;20883749;28;19916;-78
2023/07/27 11:07:12;;;;;;;;;;;22.30;99.90;;;;;;20938601;28;19913;-78
2023/07/27 11:17:13;;;;;;;;;;;23.10;99.90;;;;;;20943908;28;20007;-78
2023/07/27 11:27:14;;;;;;;;;;;22.60;99.90;;;;;;20950709;28;19924;-79
2023/07/27 11:37:15;;;;;;;;;;;22.10;99.90;;;;;;20958590;28;19917;-77
2023/07/27 11:47:16;;;;;;;;;;;21.70;99.90;;;;;;20956205;28;20394;-78
2023/07/27 11:57:17;;;;;;;;;;;22.70;99.90;;;;;;20934415;28;19917;-79
2023/07/27 12:07:17;;;;;;;;;;;22.70;99.90;;;;;;20952267;28;19912;-78
2023/07/27 12:17:22;;;;;;;;;;;23.30;99.90;;;;;;20987636;22;19924;-76
2023/07/27 12:27:22;;;;;;;;;;;23.30;99.90;;;;;;20997653;28;20332;-76
2023/07/27 12:37:23;;;;;;;;;;;24.10;99.90;;;;;;20997280;28;19990;-77
2023/07/27 12:47:24;;;;;;;;;;;24.30;99.90;;;;;;20997166;28;19938;-75
2023/07/27 12:57:24;;;;;;;;;;;24.50;99.90;;;;;;20994200;28;19917;-74
2023/07/27 13:07:25;;;;;;;;;;;25.30;99.90;;;;;;20994181;28;20475;-77
2023/07/27 13:17:25;;;;;;;;;;;24.50;99.90;;;;;;20993234;28;19966;-77
2023/07/27 13:27:26;;;;;;;;;;;24.50;99.90;;;;;;21003189;28;20362;-77
2023/07/27 13:37:31;;;;;;;;;;;23.90;99.90;;;;;;20992803;28;20128;-76
2023/07/27 13:47:32;;;;;;;;;;;24.10;99.90;;;;;;20992072;28;19912;-76
2023/07/27 13:57:33;;;;;;;;;;;24.30;99.90;;;;;;20990813;28;19923;-75
2023/07/27 14:07:33;;;;;;;;;;;24.40;99.90;;;;;;20993574;28;19966;-75
2023/07/27 14:17:34;;;;;;;;;;;24.30;99.90;;;;;;20981015;28;20014;-76
2023/07/27 14:27:35;;;;;;;;;;;24.40;99.90;;;;;;20989320;28;20393;-76
2023/07/27 14:37:35;;;;;;;;;;;24.50;99.90;;;;;;20989319;28;20341;-75
2023/07/27 14:47:36;;;;;;;;;;;24.90;99.90;;;;;;20990101;28;20386;-74
2023/07/27 14:57:37;;;;;;;;;;;24.50;99.90;;;;;;20994460;28;19951;-75
2023/07/27 15:07:37;;;;;;;;;;;24.50;99.90;;;;;;20992696;28;19952;-75
2023/07/27 15:17:38;;;;;;;;;;;24.90;99.90;;;;;;21003148;28;19921;-75
2023/07/27 15:27:39;;;;;;;;;;;24.40;99.90;;;;;;21002666;28;20309;-75
2023/07/27 15:37:39;;;;;;;;;;;24.70;99.90;;;;;;21001258;28;19923;-75
2023/07/27 15:47:40;;;;;;;;;;;25.50;99.90;;;;;;21000458;28;20294;-75
2023/07/27 15:57:40;;;;;;;;;;;25.00;99.90;;;;;;21000019;28;19986;-75
2023/07/27 16:07:41;;;;;;;;;;;25.60;99.90;;;;;;20999250;28;19912;-75
2023/07/27 16:17:42;;;;;;;;;;;25.20;99.90;;;;;;20998062;28;20004;-74
2023/07/27 16:27:43;;;;;;;;;;;24.70;99.90;;;;;;20997389;28;19920;-75
2023/07/27 16:37:43;;;;;;;;;;;24.60;99.90;;;;;;20920790;28;20011;-75
2023/07/27 16:47:44;;;;;;;;;;;24.70;99.90;;;;;;20912143;28;20399;-75
2023/07/27 16:57:45;;;;;;;;;;;24.80;99.90;;;;;;20911709;28;19924;-75
2023/07/27 17:07:45;;;;;;;;;;;24.60;99.90;;;;;;20989176;28;19916;-75
2023/07/27 17:17:46;;;;;;;;;;;24.70;99.90;;;;;;20992448;28;19927;-76
2023/07/27 17:27:47;;;;;;;;;;;24.50;99.90;;;;;;20996518;28;19912;-76
2023/07/27 17:37:48;;;;;;;;;;;24.10;99.90;;;;;;20992881;28;20357;-76
2023/07/27 17:47:48;;;;;;;;;;;24.30;99.90;;;;;;20991883;28;19912;-76
2023/07/27 17:57:49;;;;;;;;;;;24.00;99.90;;;;;;20989925;28;19916;-74
2023/07/27 18:07:50;;;;;;;;;;;23.90;99.90;;;;;;20989877;28;19913;-76
2023/07/27 18:17:50;;;;;;;;;;;23.60;99.90;;;;;;20988016;22;20043;-77
2023/07/27 18:27:51;;;;;;;;;;;23.40;99.90;;;;;;20902975;28;20410;-76
2023/07/27 18:37:51;;;;;;;;;;;23.20;99.90;;;;;;20824636;28;19971;-77
2023/07/27 18:47:52;;;;;;;;;;;22.70;99.90;;;;;;20836095;28;20116;-77
2023/07/27 18:57:53;;;;;;;;;;;22.10;99.90;;;;;;20838660;28;20055;-77
2023/07/27 19:07:53;;;;;;;;;;;21.60;99.90;;;;;;20840312;28;20011;-78
2023/07/27 19:17:54;;;;;;;;;;;21.10;99.90;;;;;;20844816;28;19971;-77
2023/07/27 19:27:55;;;;;;;;;;;20.50;99.90;;;;;;20843259;28;20403;-77
2023/07/27 19:37:55;;;;;;;;;;;20.60;99.90;;;;;;20837894;28;19917;-77
2023/07/27 19:47:56;;;;;;;;;;;19.70;99.90;;;;;;20835178;28;19920;-77
2023/07/27 19:57:57;;;;;;;;;;;19.90;99.90;;;;;;20833523;28;19917;-77
2023/07/27 20:08:00;;;;;;;;;;;19.20;99.90;;;;;;20836820;28;19960;-77
2023/07/27 20:18:00;;;;;;;;;;;18.90;99.90;;;;;;20831379;28;19917;-77
2023/07/27 20:28:01;;;;;;;;;;;18.80;99.90;;;;;;20831216;28;19917;-77
2023/07/27 20:38:02;;;;;;;;;;;18.60;99.90;;;;;;20833437;28;19917;-77
2023/07/27 20:48:02;;;;;;;;;;;18.50;99.90;;;;;;20830603;28;20387;-76
2023/07/27 20:58:03;;;;;;;;;;;18.10;99.90;;;;;;20824032;28;19921;-76
2023/07/27 21:08:04;;;;;;;;;;;17.90;99.90;;;;;;20826357;28;19913;-76
2023/07/27 21:18:05;;;;;;;;;;;17.80;99.90;;;;;;20849064;28;19927;-75
2023/07/27 21:28:06;;;;;;;;;;;17.70;99.90;;;;;;20856340;28;19960;-75
2023/07/27 21:38:06;;;;;;;;;;;17.40;99.90;;;;;;20831993;28;19952;-75
2023/07/27 21:48:07;;;;;;;;;;;17.20;99.90;;;;;;20780737;28;19921;-75
2023/07/27 21:58:07;;;;;;;;;;;17.10;99.90;;;;;;20779059;28;19932;-75
2023/07/27 22:08:08;;;;;;;;;;;17.30;99.90;;;;;;20781595;28;19928;-75
2023/07/27 22:18:09;;;;;;;;;;;17.40;99.90;;;;;;20795728;28;19925;-76
2023/07/27 22:28:10;;;;;;;;;;;17.00;99.90;;;;;;20825179;28;19928;-76
2023/07/27 22:38:11;;;;;;;;;;;16.30;99.90;;;;;;20794584;28;19925;-76
2023/07/27 22:48:11;;;;;;;;;;;16.50;99.90;;;;;;20799444;28;19936;-76
2023/07/27 22:58:12;;;;;;;;;;;16.30;99.90;;;;;;20794594;28;19924;-75
2023/07/27 23:08:13;;;;;;;;;;;16.10;99.90;;;;;;20790371;28;19921;-76
2023/07/27 23:18:14;;;;;;;;;;;16.00;99.90;;;;;;20799316;28;19953;-76
2023/07/27 23:28:14;;;;;;;;;;;16.00;99.90;;;;;;20774278;28;20364;-76
2023/07/27 23:38:15;;;;;;;;;;;16.10;99.90;;;;;;20794471;28;19925;-76
2023/07/27 23:48:16;;;;;;;;;;;16.00;99.90;;;;;;20789640;28;19921;-75
2023/07/27 23:58:16;;;;;;;;;;;15.60;99.90;;;;;;20772734;28;19925;-76
